sensor_id;sensor_type;location;lat;lon;timestamp;P1;durP1;ratioP1;P2;durP2;ratioP2
26325;SDS011;14032;52.510;7.342;2023-02-21T00:01:40;87.10;;;51.28;;
26325;SDS011;14032;52.510;7.342;2023-02-21T00:04:24;82.20;;;49.20;;
26325;SDS011;14032;52.510;7.342;2023-02-21T00:07:08;88.07;;;52.13;;
26325;SDS011;14032;52.510;7.342;2023-02-21T00:09:52;83.13;;;49.13;;
26325;SDS011;14032;52.510;7.342;2023-02-21T00:12:36;83.85;;;50.33;;
26325;SDS011;14032;52.510;7.342;2023-02-21T00:15:20;86.38;;;51.22;;
26325;SDS011;14032;52.510;7.342;2023-02-21T00:18:04;86.03;;;51.25;;
26325;SDS011;14032;52.510;7.342;2023-02-21T00:20:48;89.47;;;51.50;;
26325;SDS011;14032;52.510;7.342;2023-02-21T00:23:33;81.50;;;50.85;;
26325;SDS011;14032;52.510;7.342;2023-02-21T00:26:18;87.95;;;50.78;;
26325;SDS011;14032;52.510;7.342;2023-02-21T00:29:03;86.07;;;50.38;;
26325;SDS011;14032;52.510;7.342;2023-02-21T00:31:48;89.07;;;51.35;;
26325;SDS011;14032;52.510;7.342;2023-02-21T00:34:32;82.47;;;48.55;;
26325;SDS011;14032;52.510;7.342;2023-02-21T00:37:16;82.88;;;49.92;;
26325;SDS011;14032;52.510;7.342;2023-02-21T00:40:00;79.70;;;48.17;;
26325;SDS011;14032;52.510;7.342;2023-02-21T00:42:44;80.22;;;49.72;;
26325;SDS011;14032;52.510;7.342;2023-02-21T00:45:28;76.18;;;47.72;;
26325;SDS011;14032;52.510;7.342;2023-02-21T00:48:12;77.57;;;47.03;;
26325;SDS011;14032;52.510;7.342;2023-02-21T00:51:03;75.47;;;46.53;;
26325;SDS011;14032;52.510;7.342;2023-02-21T00:53:47;74.00;;;47.70;;
26325;SDS011;14032;52.510;7.342;2023-02-21T00:56:31;75.53;;;45.08;;
26325;SDS011;14032;52.510;7.342;2023-02-21T00:59:15;80.63;;;46.78;;
26325;SDS011;14032;52.510;7.342;2023-02-21T01:01:59;75.85;;;45.60;;
26325;SDS011;14032;52.510;7.342;2023-02-21T01:04:43;70.03;;;44.42;;
26325;SDS011;14032;52.510;7.342;2023-02-21T01:07:28;73.38;;;44.38;;
26325;SDS011;14032;52.510;7.342;2023-02-21T01:10:12;74.32;;;44.88;;
26325;SDS011;14032;52.510;7.342;2023-02-21T01:12:56;81.03;;;44.90;;
26325;SDS011;14032;52.510;7.342;2023-02-21T01:15:40;72.03;;;43.92;;
26325;SDS011;14032;52.510;7.342;2023-02-21T01:18:24;73.20;;;43.38;;
26325;SDS011;14032;52.510;7.342;2023-02-21T01:21:11;67.60;;;43.03;;
26325;SDS011;14032;52.510;7.342;2023-02-21T01:23:59;70.80;;;43.55;;
26325;SDS011;14032;52.510;7.342;2023-02-21T01:26:43;74.07;;;43.15;;
26325;SDS011;14032;52.510;7.342;2023-02-21T01:29:27;70.10;;;42.88;;
26325;SDS011;14032;52.510;7.342;2023-02-21T01:32:11;75.95;;;43.35;;
26325;SDS011;14032;52.510;7.342;2023-02-21T01:34:55;71.05;;;43.72;;
26325;SDS011;14032;52.510;7.342;2023-02-21T01:37:42;73.25;;;43.08;;
26325;SDS011;14032;52.510;7.342;2023-02-21T01:40:26;78.32;;;43.90;;
26325;SDS011;14032;52.510;7.342;2023-02-21T01:43:18;77.68;;;45.10;;
26325;SDS011;14032;52.510;7.342;2023-02-21T01:46:04;73.78;;;43.50;;
26325;SDS011;14032;52.510;7.342;2023-02-21T01:48:51;72.05;;;43.10;;
26325;SDS011;14032;52.510;7.342;2023-02-21T01:51:39;75.60;;;44.15;;
26325;SDS011;14032;52.510;7.342;2023-02-21T01:54:25;72.97;;;44.30;;
26325;SDS011;14032;52.510;7.342;2023-02-21T01:57:14;72.53;;;43.97;;
26325;SDS011;14032;52.510;7.342;2023-02-21T01:59:59;69.88;;;43.45;;
26325;SDS011;14032;52.510;7.342;2023-02-21T02:05:35;75.85;;;44.75;;
26325;SDS011;14032;52.510;7.342;2023-02-21T02:08:22;70.30;;;44.00;;
26325;SDS011;14032;52.510;7.342;2023-02-21T02:11:13;69.78;;;44.05;;
26325;SDS011;14032;52.510;7.342;2023-02-21T02:14:24;68.80;;;41.75;;
26325;SDS011;14032;52.510;7.342;2023-02-21T02:17:13;75.18;;;44.72;;
26325;SDS011;14032;52.510;7.342;2023-02-21T02:31:15;70.32;;;42.67;;
26325;SDS011;14032;52.510;7.342;2023-02-21T02:34:19;66.43;;;41.58;;
26325;SDS011;14032;52.510;7.342;2023-02-21T02:36:56;64.50;;;40.20;;
26325;SDS011;14032;52.510;7.342;2023-02-21T02:39:31;73.72;;;42.42;;
26325;SDS011;14032;52.510;7.342;2023-02-21T02:42:19;70.88;;;42.28;;
26325;SDS011;14032;52.510;7.342;2023-02-21T02:44:58;65.40;;;40.38;;
26325;SDS011;14032;52.510;7.342;2023-02-21T02:47:30;68.90;;;40.55;;
26325;SDS011;14032;52.510;7.342;2023-02-21T02:50:00;67.57;;;40.70;;
26325;SDS011;14032;52.510;7.342;2023-02-21T02:52:27;63.50;;;40.30;;
26325;SDS011;14032;52.510;7.342;2023-02-21T02:54:56;67.55;;;38.90;;
26325;SDS011;14032;52.510;7.342;2023-02-21T02:57:28;64.95;;;38.20;;
26325;SDS011;14032;52.510;7.342;2023-02-21T03:00:02;64.30;;;38.30;;
26325;SDS011;14032;52.510;7.342;2023-02-21T03:05:34;68.50;;;37.65;;
26325;SDS011;14032;52.510;7.342;2023-02-21T03:08:40;63.05;;;38.58;;
26325;SDS011;14032;52.510;7.342;2023-02-21T03:11:26;61.25;;;38.03;;
26325;SDS011;14032;52.510;7.342;2023-02-21T03:18:53;69.05;;;38.88;;
26325;SDS011;14032;52.510;7.342;2023-02-21T03:21:23;64.80;;;37.70;;
26325;SDS011;14032;52.510;7.342;2023-02-21T03:23:56;71.93;;;37.38;;
26325;SDS011;14032;52.510;7.342;2023-02-21T03:26:26;70.18;;;40.08;;
26325;SDS011;14032;52.510;7.342;2023-02-21T03:28:54;67.05;;;37.38;;
26325;SDS011;14032;52.510;7.342;2023-02-21T03:31:21;64.47;;;37.47;;
26325;SDS011;14032;52.510;7.342;2023-02-21T03:33:50;69.07;;;38.72;;
26325;SDS011;14032;52.510;7.342;2023-02-21T03:36:15;53.67;;;36.92;;
26325;SDS011;14032;52.510;7.342;2023-02-21T03:38:41;63.40;;;38.03;;
26325;SDS011;14032;52.510;7.342;2023-02-21T03:41:07;65.82;;;38.60;;
26325;SDS011;14032;52.510;7.342;2023-02-21T03:43:34;63.03;;;37.90;;
26325;SDS011;14032;52.510;7.342;2023-02-21T03:46:00;65.40;;;37.38;;
26325;SDS011;14032;52.510;7.342;2023-02-21T03:48:25;63.83;;;38.17;;
26325;SDS011;14032;52.510;7.342;2023-02-21T03:50:51;65.15;;;38.30;;
26325;SDS011;14032;52.510;7.342;2023-02-21T03:53:17;60.97;;;37.58;;
26325;SDS011;14032;52.510;7.342;2023-02-21T03:55:42;66.90;;;38.75;;
26325;SDS011;14032;52.510;7.342;2023-02-21T03:58:08;67.32;;;36.78;;
26325;SDS011;14032;52.510;7.342;2023-02-21T04:00:34;62.88;;;38.47;;
26325;SDS011;14032;52.510;7.342;2023-02-21T04:02:59;63.78;;;37.88;;
26325;SDS011;14032;52.510;7.342;2023-02-21T04:05:25;67.75;;;37.72;;
26325;SDS011;14032;52.510;7.342;2023-02-21T04:07:50;62.10;;;37.58;;
26325;SDS011;14032;52.510;7.342;2023-02-21T04:10:16;64.78;;;39.03;;
26325;SDS011;14032;52.510;7.342;2023-02-21T04:12:41;64.97;;;38.67;;
26325;SDS011;14032;52.510;7.342;2023-02-21T04:15:09;62.40;;;38.03;;
26325;SDS011;14032;52.510;7.342;2023-02-21T04:17:35;70.00;;;39.28;;
26325;SDS011;14032;52.510;7.342;2023-02-21T04:20:01;63.97;;;39.30;;
26325;SDS011;14032;52.510;7.342;2023-02-21T04:22:27;68.25;;;38.13;;
26325;SDS011;14032;52.510;7.342;2023-02-21T04:24:53;70.32;;;39.47;;
26325;SDS011;14032;52.510;7.342;2023-02-21T04:27:18;63.13;;;39.35;;
26325;SDS011;14032;52.510;7.342;2023-02-21T04:29:44;66.97;;;39.17;;
26325;SDS011;14032;52.510;7.342;2023-02-21T04:32:10;64.60;;;38.55;;
26325;SDS011;14032;52.510;7.342;2023-02-21T04:34:35;68.60;;;38.63;;
26325;SDS011;14032;52.510;7.342;2023-02-21T04:37:01;69.32;;;39.15;;
26325;SDS011;14032;52.510;7.342;2023-02-21T04:39:27;66.00;;;38.45;;
26325;SDS011;14032;52.510;7.342;2023-02-21T04:41:52;66.80;;;38.95;;
26325;SDS011;14032;52.510;7.342;2023-02-21T04:44:18;63.22;;;38.95;;
26325;SDS011;14032;52.510;7.342;2023-02-21T04:46:43;67.00;;;40.13;;
26325;SDS011;14032;52.510;7.342;2023-02-21T04:49:10;68.53;;;39.05;;
26325;SDS011;14032;52.510;7.342;2023-02-21T04:51:37;62.38;;;38.28;;
26325;SDS011;14032;52.510;7.342;2023-02-21T04:54:02;73.40;;;40.80;;
26325;SDS011;14032;52.510;7.342;2023-02-21T04:56:28;70.40;;;40.75;;
26325;SDS011;14032;52.510;7.342;2023-02-21T04:58:54;71.80;;;40.78;;
26325;SDS011;14032;52.510;7.342;2023-02-21T05:01:20;69.15;;;40.45;;
26325;SDS011;14032;52.510;7.342;2023-02-21T05:03:46;74.32;;;40.78;;
26325;SDS011;14032;52.510;7.342;2023-02-21T05:06:19;68.20;;;39.70;;
26325;SDS011;14032;52.510;7.342;2023-02-21T05:08:46;66.85;;;38.35;;
26325;SDS011;14032;52.510;7.342;2023-02-21T05:11:12;67.68;;;40.50;;
26325;SDS011;14032;52.510;7.342;2023-02-21T05:13:37;72.93;;;40.80;;
26325;SDS011;14032;52.510;7.342;2023-02-21T05:16:03;77.50;;;41.22;;
26325;SDS011;14032;52.510;7.342;2023-02-21T05:18:29;68.80;;;39.25;;
26325;SDS011;14032;52.510;7.342;2023-02-21T05:20:54;74.78;;;41.30;;
26325;SDS011;14032;52.510;7.342;2023-02-21T05:23:20;68.00;;;39.63;;
26325;SDS011;14032;52.510;7.342;2023-02-21T05:25:58;69.20;;;37.80;;
26325;SDS011;14032;52.510;7.342;2023-02-21T05:28:31;66.65;;;38.33;;
26325;SDS011;14032;52.510;7.342;2023-02-21T05:30:57;64.35;;;38.55;;
26325;SDS011;14032;52.510;7.342;2023-02-21T05:33:22;63.47;;;38.38;;
26325;SDS011;14032;52.510;7.342;2023-02-21T05:35:51;69.45;;;39.38;;
26325;SDS011;14032;52.510;7.342;2023-02-21T05:38:18;64.93;;;37.05;;
26325;SDS011;14032;52.510;7.342;2023-02-21T05:40:48;64.00;;;38.53;;
26325;SDS011;14032;52.510;7.342;2023-02-21T05:43:16;68.00;;;39.15;;
26325;SDS011;14032;52.510;7.342;2023-02-21T05:45:45;73.50;;;39.75;;
26325;SDS011;14032;52.510;7.342;2023-02-21T05:48:11;66.00;;;39.58;;
26325;SDS011;14032;52.510;7.342;2023-02-21T05:50:36;71.00;;;40.20;;
26325;SDS011;14032;52.510;7.342;2023-02-21T05:53:03;65.43;;;39.17;;
26325;SDS011;14032;52.510;7.342;2023-02-21T05:55:30;75.38;;;40.35;;
26325;SDS011;14032;52.510;7.342;2023-02-21T05:57:55;70.47;;;39.53;;
26325;SDS011;14032;52.510;7.342;2023-02-21T06:00:22;70.38;;;40.53;;
26325;SDS011;14032;52.510;7.342;2023-02-21T06:02:53;71.30;;;41.72;;
26325;SDS011;14032;52.510;7.342;2023-02-21T06:05:20;75.20;;;41.20;;
26325;SDS011;14032;52.510;7.342;2023-02-21T06:07:46;70.90;;;41.42;;
26325;SDS011;14032;52.510;7.342;2023-02-21T06:10:12;77.38;;;42.97;;
26325;SDS011;14032;52.510;7.342;2023-02-21T06:12:41;71.15;;;41.25;;
26325;SDS011;14032;52.510;7.342;2023-02-21T06:15:07;76.93;;;42.65;;
26325;SDS011;14032;52.510;7.342;2023-02-21T06:17:36;77.82;;;42.85;;
26325;SDS011;14032;52.510;7.342;2023-02-21T06:20:03;72.18;;;42.25;;
26325;SDS011;14032;52.510;7.342;2023-02-21T06:22:29;79.40;;;43.60;;
26325;SDS011;14032;52.510;7.342;2023-02-21T06:24:56;78.18;;;43.78;;
26325;SDS011;14032;52.510;7.342;2023-02-21T06:27:21;81.20;;;45.50;;
26325;SDS011;14032;52.510;7.342;2023-02-21T06:29:47;81.90;;;44.78;;
26325;SDS011;14032;52.510;7.342;2023-02-21T06:32:13;84.55;;;44.63;;
26325;SDS011;14032;52.510;7.342;2023-02-21T06:34:39;88.30;;;46.10;;
26325;SDS011;14032;52.510;7.342;2023-02-21T06:37:04;85.05;;;45.33;;
26325;SDS011;14032;52.510;7.342;2023-02-21T06:39:31;93.28;;;44.83;;
26325;SDS011;14032;52.510;7.342;2023-02-21T06:41:56;81.07;;;45.33;;
26325;SDS011;14032;52.510;7.342;2023-02-21T06:44:22;84.15;;;45.28;;
26325;SDS011;14032;52.510;7.342;2023-02-21T06:46:47;89.50;;;45.70;;
26325;SDS011;14032;52.510;7.342;2023-02-21T06:49:18;86.00;;;45.72;;
26325;SDS011;14032;52.510;7.342;2023-02-21T06:51:45;93.43;;;45.88;;
26325;SDS011;14032;52.510;7.342;2023-02-21T06:54:11;89.35;;;46.17;;
26325;SDS011;14032;52.510;7.342;2023-02-21T06:56:37;82.20;;;46.42;;
26325;SDS011;14032;52.510;7.342;2023-02-21T06:59:02;86.95;;;45.80;;
26325;SDS011;14032;52.510;7.342;2023-02-21T07:01:29;82.88;;;46.05;;
26325;SDS011;14032;52.510;7.342;2023-02-21T07:03:55;95.03;;;47.65;;
26325;SDS011;14032;52.510;7.342;2023-02-21T07:06:22;86.75;;;45.35;;
26325;SDS011;14032;52.510;7.342;2023-02-21T07:08:48;88.75;;;46.38;;
26325;SDS011;14032;52.510;7.342;2023-02-21T07:11:14;84.03;;;44.58;;
26325;SDS011;14032;52.510;7.342;2023-02-21T07:13:45;85.13;;;45.97;;
26325;SDS011;14032;52.510;7.342;2023-02-21T07:16:16;90.90;;;46.63;;
26325;SDS011;14032;52.510;7.342;2023-02-21T07:18:45;93.00;;;47.63;;
26325;SDS011;14032;52.510;7.342;2023-02-21T07:21:12;93.60;;;48.33;;
26325;SDS011;14032;52.510;7.342;2023-02-21T07:23:38;91.65;;;47.92;;
26325;SDS011;14032;52.510;7.342;2023-02-21T07:26:04;90.68;;;47.42;;
26325;SDS011;14032;52.510;7.342;2023-02-21T07:28:30;91.78;;;47.70;;
26325;SDS011;14032;52.510;7.342;2023-02-21T07:30:55;96.90;;;47.95;;
26325;SDS011;14032;52.510;7.342;2023-02-21T07:33:21;95.22;;;48.35;;
26325;SDS011;14032;52.510;7.342;2023-02-21T07:35:48;88.93;;;47.72;;
26325;SDS011;14032;52.510;7.342;2023-02-21T07:38:20;85.55;;;46.03;;
26325;SDS011;14032;52.510;7.342;2023-02-21T07:40:47;98.90;;;48.83;;
26325;SDS011;14032;52.510;7.342;2023-02-21T07:43:13;93.63;;;48.83;;
26325;SDS011;14032;52.510;7.342;2023-02-21T07:45:39;89.10;;;48.50;;
26325;SDS011;14032;52.510;7.342;2023-02-21T07:48:04;88.43;;;47.83;;
26325;SDS011;14032;52.510;7.342;2023-02-21T07:50:30;101.07;;;48.78;;
26325;SDS011;14032;52.510;7.342;2023-02-21T07:52:56;93.65;;;47.55;;
26325;SDS011;14032;52.510;7.342;2023-02-21T07:55:31;93.05;;;48.40;;
26325;SDS011;14032;52.510;7.342;2023-02-21T07:57:57;93.53;;;48.22;;
26325;SDS011;14032;52.510;7.342;2023-02-21T08:00:26;93.90;;;48.72;;
26325;SDS011;14032;52.510;7.342;2023-02-21T08:02:53;88.93;;;46.80;;
26325;SDS011;14032;52.510;7.342;2023-02-21T08:05:18;95.18;;;49.40;;
26325;SDS011;14032;52.510;7.342;2023-02-21T08:07:45;102.13;;;49.67;;
26325;SDS011;14032;52.510;7.342;2023-02-21T08:10:12;99.40;;;50.83;;
26325;SDS011;14032;52.510;7.342;2023-02-21T08:12:42;95.95;;;48.63;;
26325;SDS011;14032;52.510;7.342;2023-02-21T08:15:08;102.32;;;50.20;;
26325;SDS011;14032;52.510;7.342;2023-02-21T08:17:34;101.97;;;50.60;;
26325;SDS011;14032;52.510;7.342;2023-02-21T08:19:59;105.20;;;51.45;;
26325;SDS011;14032;52.510;7.342;2023-02-21T08:22:25;99.57;;;49.05;;
26325;SDS011;14032;52.510;7.342;2023-02-21T08:24:50;105.20;;;52.90;;
26325;SDS011;14032;52.510;7.342;2023-02-21T08:27:16;104.68;;;50.05;;
26325;SDS011;14032;52.510;7.342;2023-02-21T08:29:42;99.85;;;49.20;;
26325;SDS011;14032;52.510;7.342;2023-02-21T08:32:08;105.40;;;49.78;;
26325;SDS011;14032;52.510;7.342;2023-02-21T08:34:34;108.30;;;49.85;;
26325;SDS011;14032;52.510;7.342;2023-02-21T08:37:00;104.65;;;51.25;;
26325;SDS011;14032;52.510;7.342;2023-02-21T08:39:30;105.43;;;51.42;;
26325;SDS011;14032;52.510;7.342;2023-02-21T08:41:56;113.95;;;52.80;;
26325;SDS011;14032;52.510;7.342;2023-02-21T08:44:22;115.75;;;53.22;;
26325;SDS011;14032;52.510;7.342;2023-02-21T08:46:47;118.10;;;52.55;;
26325;SDS011;14032;52.510;7.342;2023-02-21T08:49:13;120.78;;;51.70;;
26325;SDS011;14032;52.510;7.342;2023-02-21T08:51:39;128.65;;;53.17;;
26325;SDS011;14032;52.510;7.342;2023-02-21T08:54:06;117.35;;;53.05;;
26325;SDS011;14032;52.510;7.342;2023-02-21T08:56:32;116.53;;;50.72;;
26325;SDS011;14032;52.510;7.342;2023-02-21T08:58:58;117.57;;;52.83;;
26325;SDS011;14032;52.510;7.342;2023-02-21T09:01:29;121.45;;;52.13;;
26325;SDS011;14032;52.510;7.342;2023-02-21T09:03:58;120.90;;;53.53;;
26325;SDS011;14032;52.510;7.342;2023-02-21T09:06:24;125.65;;;52.38;;
26325;SDS011;14032;52.510;7.342;2023-02-21T09:08:50;120.20;;;51.60;;
26325;SDS011;14032;52.510;7.342;2023-02-21T09:11:16;109.40;;;49.47;;
26325;SDS011;14032;52.510;7.342;2023-02-21T09:13:41;115.80;;;50.53;;
26325;SDS011;14032;52.510;7.342;2023-02-21T09:16:07;119.70;;;50.55;;
26325;SDS011;14032;52.510;7.342;2023-02-21T09:18:32;127.93;;;50.53;;
26325;SDS011;14032;52.510;7.342;2023-02-21T09:20:58;123.20;;;49.33;;
26325;SDS011;14032;52.510;7.342;2023-02-21T09:23:24;123.63;;;50.47;;
26325;SDS011;14032;52.510;7.342;2023-02-21T09:25:53;123.05;;;50.53;;
26325;SDS011;14032;52.510;7.342;2023-02-21T09:28:18;123.93;;;48.72;;
26325;SDS011;14032;52.510;7.342;2023-02-21T09:30:45;122.30;;;50.20;;
26325;SDS011;14032;52.510;7.342;2023-02-21T09:33:12;128.52;;;50.38;;
26325;SDS011;14032;52.510;7.342;2023-02-21T09:35:39;121.00;;;50.25;;
26325;SDS011;14032;52.510;7.342;2023-02-21T09:38:06;133.32;;;49.88;;
26325;SDS011;14032;52.510;7.342;2023-02-21T09:40:35;121.55;;;48.60;;
26325;SDS011;14032;52.510;7.342;2023-02-21T09:43:09;126.43;;;51.08;;
26325;SDS011;14032;52.510;7.342;2023-02-21T09:45:39;131.05;;;50.35;;
26325;SDS011;14032;52.510;7.342;2023-02-21T09:48:07;126.47;;;50.28;;
26325;SDS011;14032;52.510;7.342;2023-02-21T09:50:51;124.07;;;50.55;;
26325;SDS011;14032;52.510;7.342;2023-02-21T09:53:26;134.48;;;52.25;;
26325;SDS011;14032;52.510;7.342;2023-02-21T09:55:56;135.07;;;51.92;;
26325;SDS011;14032;52.510;7.342;2023-02-21T09:58:38;119.40;;;49.72;;
26325;SDS011;14032;52.510;7.342;2023-02-21T10:01:09;133.75;;;50.67;;
26325;SDS011;14032;52.510;7.342;2023-02-21T10:04:09;130.93;;;52.55;;
26325;SDS011;14032;52.510;7.342;2023-02-21T10:06:59;125.45;;;50.45;;
26325;SDS011;14032;52.510;7.342;2023-02-21T10:09:41;146.50;;;53.33;;
26325;SDS011;14032;52.510;7.342;2023-02-21T10:12:18;137.02;;;53.40;;
26325;SDS011;14032;52.510;7.342;2023-02-21T10:17:54;130.90;;;52.05;;
26325;SDS011;14032;52.510;7.342;2023-02-21T10:23:02;129.57;;;51.35;;
26325;SDS011;14032;52.510;7.342;2023-02-21T10:25:35;137.10;;;53.50;;
26325;SDS011;14032;52.510;7.342;2023-02-21T10:28:07;134.65;;;51.63;;
26325;SDS011;14032;52.510;7.342;2023-02-21T10:30:37;136.27;;;52.78;;
26325;SDS011;14032;52.510;7.342;2023-02-21T10:33:05;140.80;;;53.30;;
26325;SDS011;14032;52.510;7.342;2023-02-21T10:35:32;132.15;;;52.55;;
26325;SDS011;14032;52.510;7.342;2023-02-21T10:37:58;136.20;;;54.30;;
26325;SDS011;14032;52.510;7.342;2023-02-21T10:43:07;138.48;;;52.50;;
26325;SDS011;14032;52.510;7.342;2023-02-21T10:48:24;134.18;;;53.47;;
26325;SDS011;14032;52.510;7.342;2023-02-21T10:51:07;142.13;;;52.83;;
26325;SDS011;14032;52.510;7.342;2023-02-21T10:53:38;132.77;;;53.60;;
26325;SDS011;14032;52.510;7.342;2023-02-21T10:56:05;130.80;;;50.13;;
26325;SDS011;14032;52.510;7.342;2023-02-21T10:58:34;131.32;;;52.55;;
26325;SDS011;14032;52.510;7.342;2023-02-21T11:07:08;136.65;;;52.00;;
26325;SDS011;14032;52.510;7.342;2023-02-21T11:09:38;127.10;;;48.97;;
26325;SDS011;14032;52.510;7.342;2023-02-21T11:15:04;134.98;;;50.80;;
26325;SDS011;14032;52.510;7.342;2023-02-21T11:17:41;132.68;;;50.92;;
26325;SDS011;14032;52.510;7.342;2023-02-21T11:22:45;126.22;;;50.45;;
26325;SDS011;14032;52.510;7.342;2023-02-21T11:30:29;130.35;;;50.97;;
26325;SDS011;14032;52.510;7.342;2023-02-21T11:32:57;127.10;;;49.88;;
26325;SDS011;14032;52.510;7.342;2023-02-21T11:35:29;118.43;;;50.25;;
26325;SDS011;14032;52.510;7.342;2023-02-21T11:38:04;119.18;;;48.80;;
26325;SDS011;14032;52.510;7.342;2023-02-21T11:46:02;111.68;;;47.60;;
26325;SDS011;14032;52.510;7.342;2023-02-21T11:51:48;116.40;;;47.15;;
26325;SDS011;14032;52.510;7.342;2023-02-21T11:54:27;113.70;;;47.40;;
26325;SDS011;14032;52.510;7.342;2023-02-21T12:05:12;107.65;;;45.53;;
26325;SDS011;14032;52.510;7.342;2023-02-21T12:29:20;99.72;;;42.13;;
26325;SDS011;14032;52.510;7.342;2023-02-21T12:40:27;91.57;;;42.13;;
26325;SDS011;14032;52.510;7.342;2023-02-21T12:46:00;83.47;;;39.63;;
26325;SDS011;14032;52.510;7.342;2023-02-21T12:51:19;89.13;;;42.90;;
26325;SDS011;14032;52.510;7.342;2023-02-21T13:05:43;85.45;;;38.35;;
26325;SDS011;14032;52.510;7.342;2023-02-21T13:08:20;80.45;;;39.78;;
26325;SDS011;14032;52.510;7.342;2023-02-21T13:10:51;87.60;;;40.50;;
26325;SDS011;14032;52.510;7.342;2023-02-21T13:13:30;77.10;;;38.00;;
26325;SDS011;14032;52.510;7.342;2023-02-21T13:15:58;81.93;;;39.83;;
26325;SDS011;14032;52.510;7.342;2023-02-21T13:18:36;78.65;;;36.00;;
26325;SDS011;14032;52.510;7.342;2023-02-21T13:23:56;77.40;;;37.38;;
26325;SDS011;14032;52.510;7.342;2023-02-21T13:29:36;76.07;;;35.78;;
26325;SDS011;14032;52.510;7.342;2023-02-21T13:32:09;71.45;;;35.47;;
26325;SDS011;14032;52.510;7.342;2023-02-21T13:34:55;72.28;;;36.63;;
26325;SDS011;14032;52.510;7.342;2023-02-21T13:37:29;69.50;;;35.30;;
26325;SDS011;14032;52.510;7.342;2023-02-21T13:40:12;71.50;;;36.00;;
26325;SDS011;14032;52.510;7.342;2023-02-21T13:42:45;71.90;;;34.30;;
26325;SDS011;14032;52.510;7.342;2023-02-21T13:45:15;73.68;;;35.53;;
26325;SDS011;14032;52.510;7.342;2023-02-21T13:55:34;71.53;;;34.10;;
26325;SDS011;14032;52.510;7.342;2023-02-21T14:08:07;71.07;;;32.50;;
26325;SDS011;14032;52.510;7.342;2023-02-21T14:10:51;70.70;;;33.60;;
26325;SDS011;14032;52.510;7.342;2023-02-21T14:13:26;72.57;;;33.35;;
26325;SDS011;14032;52.510;7.342;2023-02-21T14:16:14;82.43;;;35.17;;
26325;SDS011;14032;52.510;7.342;2023-02-21T14:21:44;69.25;;;31.90;;
26325;SDS011;14032;52.510;7.342;2023-02-21T14:24:15;63.45;;;30.90;;
26325;SDS011;14032;52.510;7.342;2023-02-21T14:29:41;68.15;;;31.75;;
26325;SDS011;14032;52.510;7.342;2023-02-21T14:32:34;66.00;;;30.00;;
26325;SDS011;14032;52.510;7.342;2023-02-21T14:35:13;65.82;;;31.33;;
26325;SDS011;14032;52.510;7.342;2023-02-21T14:37:52;65.50;;;29.88;;
26325;SDS011;14032;52.510;7.342;2023-02-21T14:40:54;66.63;;;30.30;;
26325;SDS011;14032;52.510;7.342;2023-02-21T14:46:25;69.68;;;29.15;;
26325;SDS011;14032;52.510;7.342;2023-02-21T14:52:22;63.10;;;27.52;;
26325;SDS011;14032;52.510;7.342;2023-02-21T14:57:58;61.25;;;27.13;;
26325;SDS011;14032;52.510;7.342;2023-02-21T15:03:24;62.42;;;25.25;;
26325;SDS011;14032;52.510;7.342;2023-02-21T15:06:06;59.15;;;25.75;;
26325;SDS011;14032;52.510;7.342;2023-02-21T15:08:44;57.08;;;24.70;;
26325;SDS011;14032;52.510;7.342;2023-02-21T15:11:23;66.95;;;26.17;;
26325;SDS011;14032;52.510;7.342;2023-02-21T15:16:47;63.75;;;26.75;;
26325;SDS011;14032;52.510;7.342;2023-02-21T15:19:28;58.22;;;25.45;;
26325;SDS011;14032;52.510;7.342;2023-02-21T15:22:14;61.25;;;25.60;;
26325;SDS011;14032;52.510;7.342;2023-02-21T15:27:36;60.63;;;27.60;;
26325;SDS011;14032;52.510;7.342;2023-02-21T15:30:28;60.95;;;26.40;;
26325;SDS011;14032;52.510;7.342;2023-02-21T15:33:04;61.03;;;26.73;;
26325;SDS011;14032;52.510;7.342;2023-02-21T15:35:35;60.25;;;27.08;;
26325;SDS011;14032;52.510;7.342;2023-02-21T15:38:05;57.15;;;25.58;;
26325;SDS011;14032;52.510;7.342;2023-02-21T15:40:38;61.93;;;27.63;;
26325;SDS011;14032;52.510;7.342;2023-02-21T15:43:04;57.63;;;27.77;;
26325;SDS011;14032;52.510;7.342;2023-02-21T15:45:43;60.55;;;28.60;;
26325;SDS011;14032;52.510;7.342;2023-02-21T15:48:11;60.38;;;28.35;;
26325;SDS011;14032;52.510;7.342;2023-02-21T15:50:41;56.58;;;26.20;;
26325;SDS011;14032;52.510;7.342;2023-02-21T15:53:11;59.58;;;27.25;;
26325;SDS011;14032;52.510;7.342;2023-02-21T15:55:45;60.42;;;27.85;;
26325;SDS011;14032;52.510;7.342;2023-02-21T16:00:49;63.05;;;27.90;;
26325;SDS011;14032;52.510;7.342;2023-02-21T16:03:38;61.05;;;28.45;;
26325;SDS011;14032;52.510;7.342;2023-02-21T16:09:06;60.05;;;25.23;;
26325;SDS011;14032;52.510;7.342;2023-02-21T16:11:43;55.00;;;24.25;;
26325;SDS011;14032;52.510;7.342;2023-02-21T16:14:19;58.55;;;26.42;;
26325;SDS011;14032;52.510;7.342;2023-02-21T16:16:49;52.40;;;25.05;;
26325;SDS011;14032;52.510;7.342;2023-02-21T16:19:20;53.55;;;25.25;;
26325;SDS011;14032;52.510;7.342;2023-02-21T16:21:48;54.10;;;25.75;;
26325;SDS011;14032;52.510;7.342;2023-02-21T16:24:30;56.58;;;25.40;;
26325;SDS011;14032;52.510;7.342;2023-02-21T16:27:04;58.30;;;26.42;;
26325;SDS011;14032;52.510;7.342;2023-02-21T16:29:35;54.28;;;24.83;;
26325;SDS011;14032;52.510;7.342;2023-02-21T16:32:00;58.65;;;26.30;;
26325;SDS011;14032;52.510;7.342;2023-02-21T16:34:27;54.13;;;23.77;;
26325;SDS011;14032;52.510;7.342;2023-02-21T16:37:03;60.75;;;27.25;;
26325;SDS011;14032;52.510;7.342;2023-02-21T16:39:34;58.45;;;26.42;;
26325;SDS011;14032;52.510;7.342;2023-02-21T16:42:01;64.85;;;26.80;;
26325;SDS011;14032;52.510;7.342;2023-02-21T16:44:27;57.20;;;26.35;;
26325;SDS011;14032;52.510;7.342;2023-02-21T16:46:53;61.17;;;26.20;;
26325;SDS011;14032;52.510;7.342;2023-02-21T16:49:21;58.10;;;26.13;;
26325;SDS011;14032;52.510;7.342;2023-02-21T16:51:47;57.75;;;25.77;;
26325;SDS011;14032;52.510;7.342;2023-02-21T16:54:12;57.63;;;25.77;;
26325;SDS011;14032;52.510;7.342;2023-02-21T16:56:42;57.47;;;27.00;;
26325;SDS011;14032;52.510;7.342;2023-02-21T16:59:13;59.50;;;25.13;;
26325;SDS011;14032;52.510;7.342;2023-02-21T17:01:41;61.65;;;26.10;;
26325;SDS011;14032;52.510;7.342;2023-02-21T17:04:15;59.92;;;27.00;;
26325;SDS011;14032;52.510;7.342;2023-02-21T17:06:43;56.08;;;25.35;;
26325;SDS011;14032;52.510;7.342;2023-02-21T17:09:19;54.83;;;24.73;;
26325;SDS011;14032;52.510;7.342;2023-02-21T17:11:46;56.47;;;24.90;;
26325;SDS011;14032;52.510;7.342;2023-02-21T17:14:12;60.58;;;26.45;;
26325;SDS011;14032;52.510;7.342;2023-02-21T17:16:38;64.22;;;27.13;;
26325;SDS011;14032;52.510;7.342;2023-02-21T17:19:03;64.72;;;27.40;;
26325;SDS011;14032;52.510;7.342;2023-02-21T17:21:30;64.15;;;26.45;;
26325;SDS011;14032;52.510;7.342;2023-02-21T17:23:56;60.83;;;25.40;;
26325;SDS011;14032;52.510;7.342;2023-02-21T17:26:23;55.65;;;24.52;;
26325;SDS011;14032;52.510;7.342;2023-02-21T17:28:49;52.95;;;23.55;;
26325;SDS011;14032;52.510;7.342;2023-02-21T17:31:15;55.45;;;23.35;;
26325;SDS011;14032;52.510;7.342;2023-02-21T17:33:44;49.13;;;21.33;;
26325;SDS011;14032;52.510;7.342;2023-02-21T17:36:16;47.22;;;20.63;;